Time;durP1;ratioP1;P1;durP2;ratioP2;P2;SDS_P1;SDS_P2;PMS_P1;PMS_P2;Temp;Humidity;BMP_temperature;BMP_pressure;BME280_temperature;BME280_humidity;BME280_pressure;Samples;Min_cycle;Max_cycle;Signal;HPM_P1;HPM_P2
2022/10/14 00:01:45;;;;;;;18.40;9.10;;;;;;;6.17;71.01;100188.35;24517;1327;3027521;-65
2022/10/14 00:04:14;;;;;;;15.10;7.30;;;;;;;6.17;71.25;100186.27;24457;1338;3049738;-73
2022/10/14 00:06:43;;;;;;;14.20;5.70;;;;;;;6.79;69.64;100186.02;24492;1328;3028559;-67
2022/10/14 00:09:13;;;;;;;23.80;9.80;;;;;;;7.29;67.60;100188.33;24484;1336;3068597;-65
2022/10/14 00:11:43;;;;;;;22.20;10.30;;;;;;;7.25;67.17;100189.17;24479;1341;3027024;-70
2022/10/14 00:14:14;;;;;;;25.60;10.20;;;;;;;7.20;67.54;100190.39;24454;1330;3025643;-69
2022/10/14 00:16:44;;;;;;;27.50;11.30;;;;;;;7.10;67.56;100189.65;24517;1333;3069476;-70
2022/10/14 00:19:17;;;;;;;28.60;11.50;;;;;;;6.94;68.26;100191.27;24518;1333;3049217;-71
2022/10/14 00:21:47;;;;;;;32.90;11.00;;;;;;;6.88;68.63;100190.77;24496;1332;3028639;-69
2022/10/14 00:24:17;;;;;;;20.20;9.10;;;;;;;6.79;69.08;100186.72;24505;1329;3028382;-67
2022/10/14 00:26:47;;;;;;;20.20;8.80;;;;;;;6.68;69.40;100190.90;24540;1339;3050474;-74
2022/10/14 00:29:19;;;;;;;18.60;8.40;;;;;;;6.64;69.69;100195.90;24518;1328;3028960;-67
2022/10/14 00:31:50;;;;;;;18.10;6.50;;;;;;;6.65;69.54;100191.71;24426;1336;3068546;-67
2022/10/14 00:34:20;;;;;;;14.90;7.40;;;;;;;6.62;70.06;100194.07;24449;1336;3026323;-65
2022/10/14 00:36:50;;;;;;;14.00;6.80;;;;;;;6.61;69.77;100194.09;24453;1340;3026301;-69
2022/10/14 00:39:20;;;;;;;20.10;7.90;;;;;;;6.60;69.93;100194.15;24520;1325;3026365;-68
2022/10/14 00:41:49;;;;;;;18.00;8.00;;;;;;;6.57;70.14;100188.14;24503;1329;3026769;-70
2022/10/14 00:44:18;;;;;;;15.10;6.80;;;;;;;6.55;70.46;100185.75;24471;1333;3056137;-69
2022/10/14 00:46:48;;;;;;;14.20;6.50;;;;;;;6.61;70.44;100181.05;24485;1333;3027073;-65
2022/10/14 00:49:32;;;;;;;13.20;6.10;;;;;;;6.59;70.62;100183.02;24450;1343;3053135;-67
2022/10/14 00:52:05;;;;;;;13.50;6.30;;;;;;;6.59;70.48;100180.08;24435;1331;3051735;-67
2022/10/14 00:54:38;;;;;;;13.20;6.40;;;;;;;6.58;70.73;100182.17;24458;1332;3026040;-66
2022/10/14 00:57:09;;;;;;;13.70;7.20;;;;;;;6.58;70.78;100177.66;24501;1334;3049014;-69
2022/10/14 00:59:39;;;;;;;15.90;6.90;;;;;;;6.52;71.10;100184.80;24489;1338;3026222;-69
2022/10/14 01:02:08;;;;;;;14.00;5.70;;;;;;;6.57;71.22;100184.99;24451;1331;3028524;-68
2022/10/14 01:04:39;;;;;;;14.60;6.30;;;;;;;7.07;70.18;100180.91;24446;1339;3049668;-67
2022/10/14 01:07:24;;;;;;;14.80;6.90;;;;;;;7.58;68.16;100178.90;24430;1339;3028305;-66
2022/10/14 01:10:05;;;;;;;18.60;8.20;;;;;;;7.65;67.71;100176.54;24494;1333;3050259;-72
2022/10/14 01:13:13;;;;;;;17.40;8.10;;;;;;;7.46;68.41;100178.64;24483;1327;3057233;-73
2022/10/14 01:16:08;;;;;;;16.30;7.90;;;;;;;7.33;68.83;100172.33;24443;1335;3051979;-66
2022/10/14 01:19:01;;;;;;;20.00;8.90;;;;;;;7.12;69.52;100181.59;24438;1336;3053939;-65
2022/10/14 01:21:33;;;;;;;17.60;8.70;;;;;;;7.02;70.02;100180.52;24450;1332;3052182;-66
2022/10/14 01:24:17;;;;;;;22.10;8.90;;;;;;;6.96;70.24;100180.75;24492;1333;3029484;-66
2022/10/14 01:27:08;;;;;;;26.20;10.20;;;;;;;6.93;70.50;100179.09;24475;1333;3050872;-67
2022/10/14 01:29:56;;;;;;;19.70;8.60;;;;;;;6.84;70.87;100178.36;24423;1333;3068937;-68
2022/10/14 01:32:29;;;;;;;24.10;9.70;;;;;;;6.73;71.25;100176.64;24555;1327;3049775;-67
2022/10/14 01:35:23;;;;;;;26.90;9.60;;;;;;;6.69;71.53;100177.47;24472;1339;3028356;-66
2022/10/14 01:37:59;;;;;;;25.20;9.10;;;;;;;6.68;71.62;100178.55;24518;1336;3051660;-70
2022/10/14 01:40:43;;;;;;;22.00;9.70;;;;;;;6.69;71.69;100180.92;24421;1339;3054960;-69
2022/10/14 01:43:12;;;;;;;24.10;9.60;;;;;;;6.77;71.36;100179.11;24438;1332;3052495;-66
2022/10/14 01:45:42;;;;;;;25.80;10.70;;;;;;;6.71;71.58;100180.69;24415;1335;3029165;-68
2022/10/14 01:48:16;;;;;;;23.90;9.20;;;;;;;6.66;71.49;100182.94;24471;1336;3025451;-63
2022/10/14 01:50:47;;;;;;;15.30;7.30;;;;;;;6.67;71.86;100185.36;24453;1339;3026650;-70
2022/10/14 01:53:21;;;;;;;17.10;7.40;;;;;;;7.28;70.58;100185.89;24468;1325;3025993;-72
2022/10/14 01:55:51;;;;;;;25.70;10.10;;;;;;;7.73;68.80;100183.94;24487;1339;3056951;-65
2022/10/14 01:58:25;;;;;;;23.50;10.70;;;;;;;7.74;68.09;100184.95;24482;1346;3029338;-67
2022/10/14 02:00:54;;;;;;;28.20;10.90;;;;;;;7.54;68.56;100188.98;24462;1336;3051425;-65
2022/10/14 02:03:43;;;;;;;33.90;13.40;;;;;;;7.35;69.20;100185.30;24430;1335;3026412;-66
2022/10/14 02:06:22;;;;;;;37.90;15.80;;;;;;;7.15;69.96;100186.21;24546;1339;3051555;-68
2022/10/14 02:08:58;;;;;;;38.50;15.60;;;;;;;7.04;70.48;100183.76;24503;1336;3050827;-67
2022/10/14 02:11:57;;;;;;;34.90;16.40;;;;;;;6.91;71.15;100189.08;24450;1339;3069256;-71
2022/10/14 02:15:03;;;;;;;44.20;16.10;;;;;;;6.77;71.68;100186.29;24442;1325;3051069;-67
2022/10/14 02:17:36;;;;;;;32.00;13.50;;;;;;;6.67;72.11;100186.95;24422;1340;3056611;-64
2022/10/14 02:20:28;;;;;;;32.50;12.50;;;;;;;6.66;72.47;100181.58;24475;1333;3052186;-70
2022/10/14 02:23:00;;;;;;;28.00;12.30;;;;;;;6.60;72.78;100186.98;24518;1333;3052843;-70
2022/10/14 02:25:34;;;;;;;27.00;11.10;;;;;;;6.60;72.87;100185.42;24417;1336;3050282;-64
2022/10/14 02:28:04;;;;;;;26.40;12.00;;;;;;;6.61;73.04;100184.35;24471;1333;3026145;-72
2022/10/14 02:30:39;;;;;;;17.10;7.50;;;;;;;6.65;73.02;100180.93;24464;1342;3026410;-72
2022/10/14 02:33:09;;;;;;;19.60;7.50;;;;;;;7.29;71.70;100181.31;24494;1319;3068361;-67
2022/10/14 02:35:38;;;;;;;19.50;7.50;;;;;;;7.91;69.13;100180.63;24402;1336;3026221;-68
2022/10/14 02:38:07;;;;;;;23.00;9.00;;;;;;;8.06;68.39;100179.90;24493;1329;3050635;-66
2022/10/14 02:40:42;;;;;;;21.20;8.90;;;;;;;8.07;68.18;100180.73;24504;1335;3025910;-70
2022/10/14 02:43:12;;;;;;;21.50;9.50;;;;;;;7.81;69.01;100187.30;24443;1337;3053575;-70
2022/10/14 02:45:41;;;;;;;21.80;8.60;;;;;;;7.56;69.80;100180.91;24453;1335;3027825;-69
2022/10/14 02:48:11;;;;;;;21.80;9.50;;;;;;;7.33;70.48;100179.27;24477;1346;3052668;-69
2022/10/14 02:53:52;;;;;;;27.00;11.60;;;;;;;7.19;71.65;100185.54;30697;1325;3013674;-68
2022/10/14 02:56:21;;;;;;;22.80;10.00;;;;;;;7.06;72.00;100186.31;24484;1333;3028795;-68
2022/10/14 02:58:51;;;;;;;22.70;10.00;;;;;;;7.05;72.09;100189.49;24495;1333;3028436;-69
2022/10/14 03:01:21;;;;;;;22.70;10.50;;;;;;;7.10;71.63;100184.25;24472;1326;3049294;-71
2022/10/14 03:03:52;;;;;;;25.10;10.40;;;;;;;7.01;72.26;100184.23;24452;1332;3028282;-70
2022/10/14 03:06:21;;;;;;;27.70;10.70;;;;;;;6.96;72.81;100183.36;24133;1331;3038044;-70
2022/10/14 03:08:53;;;;;;;16.40;6.90;;;;;;;6.94;72.79;100177.70;24568;1336;3049282;-70
2022/10/14 03:11:22;;;;;;;19.20;7.50;;;;;;;7.50;71.48;100176.23;24494;1323;3028295;-72
2022/10/14 03:13:52;;;;;;;18.20;7.90;;;;;;;8.10;69.35;100170.83;24588;1333;3052901;-68
2022/10/14 03:16:25;;;;;;;17.50;7.30;;;;;;;8.08;68.76;100166.03;24530;1336;3050455;-68
2022/10/14 03:18:55;;;;;;;14.50;7.30;;;;;;;7.92;69.15;100165.08;24535;1340;3027620;-71
2022/10/14 03:21:33;;;;;;;16.70;7.70;;;;;;;7.70;69.76;100163.13;24511;1339;3050249;-65
2022/10/14 03:24:03;;;;;;;13.70;6.40;;;;;;;7.57;70.23;100167.23;24456;1326;3027318;-69
2022/10/14 03:26:34;;;;;;;13.00;6.90;;;;;;;7.41;71.07;100171.69;24488;1323;3031161;-70
2022/10/14 03:29:03;;;;;;;11.40;6.00;;;;;;;7.31;71.50;100174.13;24565;1329;3029063;-68
2022/10/14 03:31:47;;;;;;;15.10;5.60;;;;;;;7.19;72.08;100169.51;24544;1338;3057705;-68
2022/10/14 03:34:26;;;;;;;19.40;7.20;;;;;;;7.17;72.44;100172.52;24470;1334;3052174;-68
2022/10/14 03:37:04;;;;;;;13.50;6.70;;;;;;;7.18;72.35;100172.33;24498;1331;3054276;-65
2022/10/14 03:39:34;;;;;;;13.00;7.20;;;;;;;7.04;72.88;100175.24;24455;1322;3027775;-65
2022/10/14 03:42:07;;;;;;;16.30;9.10;;;;;;;6.97;73.31;100175.84;24603;1333;3027564;-68
2022/10/14 03:44:43;;;;;;;11.60;5.20;;;;;;;6.92;73.94;100178.98;24452;1326;3049422;-70
2022/10/14 03:47:45;;;;;;;15.20;5.80;;;;;;;7.67;71.97;100174.70;24481;1332;3069801;-63
2022/10/14 03:50:14;;;;;;;13.60;6.10;;;;;;;8.11;69.85;100169.40;24519;1324;3031347;-66
2022/10/14 03:52:47;;;;;;;12.90;6.80;;;;;;;8.11;69.51;100166.08;24538;1336;3050462;-69
2022/10/14 03:55:30;;;;;;;14.60;7.60;;;;;;;7.94;70.04;100171.29;24462;1333;3070645;-68
2022/10/14 03:57:59;;;;;;;13.80;6.20;;;;;;;7.72;70.57;100178.04;24530;1332;3028938;-66
2022/10/14 04:00:30;;;;;;;15.30;7.20;;;;;;;7.58;70.93;100178.02;24488;1342;3049907;-65
2022/10/14 04:03:22;;;;;;;;;;;;;;;7.45;71.49;100176.92;24504;1346;3070183;-68
2022/10/14 04:05:52;;;;;;;16.30;6.40;;;;;;;7.29;72.03;100178.20;24563;1324;3027823;-70
2022/10/14 04:08:24;;;;;;;13.00;6.40;;;;;;;7.19;72.72;100179.73;24557;1331;3050859;-68
2022/10/14 04:10:58;;;;;;;14.60;6.50;;;;;;;7.14;73.09;100182.05;24564;1330;3069994;-72
2022/10/14 04:13:28;;;;;;;17.20;6.90;;;;;;;7.04;73.40;100185.35;24592;1331;3029837;-72
2022/10/14 04:16:05;;;;;;;13.90;6.00;;;;;;;7.03;73.51;100181.89;24541;1324;3026889;-69
2022/10/14 04:18:38;;;;;;;13.50;6.20;;;;;;;7.03;73.63;100183.80;24588;1324;3051544;-66
2022/10/14 04:21:10;;;;;;;7.20;4.00;;;;;;;7.07;73.69;100180.89;24468;1324;3026003;-73
2022/10/14 04:23:39;;;;;;;8.60;4.00;;;;;;;7.75;72.01;100181.05;24508;1331;3029814;-67
2022/10/14 04:26:16;;;;;;;8.30;5.00;;;;;;;8.35;69.34;100179.27;24568;1331;3052912;-68
2022/10/14 04:28:47;;;;;;;11.00;5.70;;;;;;;8.35;69.04;100175.28;24601;1323;3026556;-67
2022/10/14 04:31:21;;;;;;;13.80;6.10;;;;;;;8.17;69.22;100173.70;24501;1329;3069871;-68
2022/10/14 04:33:55;;;;;;;;;;;;;;;8.07;69.88;100178.10;24628;1319;3048354;-70
2022/10/14 04:36:30;;;;;;;14.40;6.70;;;;;;;7.94;70.02;100178.27;24539;1333;3056978;-73
2022/10/14 04:39:01;;;;;;;12.70;6.40;;;;;;;7.79;70.68;100181.62;24591;1333;3027805;-73
2022/10/14 04:41:31;;;;;;;15.00;6.60;;;;;;;7.87;70.35;100181.64;24493;1332;3027612;-71
2022/10/14 04:44:04;;;;;;;11.60;5.60;;;;;;;7.80;70.53;100183.84;24609;1326;3027718;-70
2022/10/14 04:46:49;;;;;;;15.00;6.80;;;;;;;7.70;70.86;100184.72;24591;1329;3053060;-74
2022/10/14 04:49:20;;;;;;;13.90;6.90;;;;;;;7.64;71.18;100186.90;24545;1335;3026388;-68
2022/10/14 04:51:55;;;;;;;18.80;6.90;;;;;;;7.65;71.56;100186.84;24552;1337;3068320;-71
2022/10/14 04:54:40;;;;;;;15.40;7.20;;;;;;;7.63;71.48;100187.63;24578;1315;3051450;-68
2022/10/14 04:57:13;;;;;;;14.00;6.20;;;;;;;7.66;71.42;100191.84;24636;1335;3026876;-72
2022/10/14 04:59:42;;;;;;;14.70;6.50;;;;;;;7.66;71.46;100195.85;24637;1332;3026613;-70
2022/10/14 05:02:26;;;;;;;13.00;6.80;;;;;;;7.68;71.29;100195.64;24615;1333;3053644;-63
2022/10/14 05:05:00;;;;;;;14.70;6.70;;;;;;;7.75;71.01;100195.72;24606;1337;3051403;-72
2022/10/14 05:07:33;;;;;;;7.80;4.10;;;;;;;7.74;71.37;100192.09;24610;1323;3028786;-73
2022/10/14 05:10:12;;;;;;;8.90;4.40;;;;;;;8.42;69.55;100192.47;24585;1323;3049220;-73
2022/10/14 05:12:47;;;;;;;12.30;5.30;;;;;;;8.94;67.52;100188.95;24582;1329;3068667;-72
2022/10/14 05:15:22;;;;;;;11.80;6.10;;;;;;;9.02;67.05;100189.66;24625;1331;3050460;-73
2022/10/14 05:18:06;;;;;;;;;;;;;;;8.64;67.66;100191.22;24616;1339;3056500;-70
2022/10/14 05:20:58;;;;;;;14.30;5.80;;;;;;;8.41;68.43;100190.57;24514;1334;3052072;-69
2022/10/14 05:23:31;;;;;;;14.10;6.70;;;;;;;8.25;69.19;100191.20;24557;1333;3026121;-74
2022/10/14 05:26:01;;;;;;;15.50;7.10;;;;;;;8.12;69.69;100194.84;24581;1331;3026360;-67
2022/10/14 05:28:30;;;;;;;20.20;7.80;;;;;;;8.03;70.09;100195.36;24601;1333;3028070;-65
2022/10/14 05:30:59;;;;;;;16.10;8.10;;;;;;;7.94;70.43;100201.96;24559;1324;3053368;-67
2022/10/14 05:33:28;;;;;;;17.40;7.50;;;;;;;7.80;71.04;100200.79;24624;1331;3026730;-71
2022/10/14 05:35:57;;;;;;;18.30;8.30;;;;;;;7.89;70.77;100205.13;24570;1331;3052436;-76
2022/10/14 05:38:30;;;;;;;16.90;8.10;;;;;;;7.86;71.07;100207.84;24549;1329;3025128;-70
2022/10/14 05:41:02;;;;;;;19.00;8.50;;;;;;;7.95;70.89;100208.95;24581;1324;3050567;-68
2022/10/14 05:43:31;;;;;;;15.30;8.10;;;;;;;7.95;70.60;100209.77;24538;1331;3026074;-72
2022/10/14 05:46:01;;;;;;;16.60;7.40;;;;;;;7.96;70.58;100212.02;24636;1329;3054510;-69
2022/10/14 05:48:35;;;;;;;16.30;7.60;;;;;;;8.01;70.28;100217.23;24534;1329;3051371;-69
2022/10/14 05:51:04;;;;;;;14.70;7.30;;;;;;;8.08;70.36;100216.11;24635;1325;3025920;-69
2022/10/14 05:53:38;;;;;;;14.80;6.80;;;;;;;8.08;70.14;100214.53;24518;1334;3026843;-66
2022/10/14 05:56:08;;;;;;;15.90;7.20;;;;;;;8.05;70.35;100213.27;24625;1334;3025906;-69
2022/10/14 05:58:39;;;;;;;15.10;6.50;;;;;;;7.96;70.68;100212.38;24569;1332;3026171;-66
2022/10/14 06:01:09;;;;;;;13.60;6.90;;;;;;;7.98;70.78;100210.73;24620;1337;3026170;-68
2022/10/14 06:03:41;;;;;;;8.00;4.10;;;;;;;8.07;70.95;100217.67;24552;1339;3026345;-69
2022/10/14 06:06:12;;;;;;;9.80;4.10;;;;;;;8.76;69.33;100207.50;24613;1331;3029840;-67
2022/10/14 06:08:41;;;;;;;10.00;4.40;;;;;;;9.45;66.68;100209.47;24538;1317;3027665;-70
2022/10/14 06:11:13;;;;;;;11.90;5.00;;;;;;;9.74;66.11;100212.02;24558;1331;3026765;-71
2022/10/14 06:13:47;;;;;;;13.80;6.30;;;;;;;9.71;65.19;100210.59;24560;1309;3049720;-72
2022/10/14 06:16:16;;;;;;;13.40;5.70;;;;;;;9.62;65.57;100212.21;24497;1333;3027263;-67
2022/10/14 06:18:45;;;;;;;14.30;5.60;;;;;;;9.57;65.78;100208.42;24628;1330;3052152;-71
2022/10/14 06:21:16;;;;;;;10.10;5.60;;;;;;;9.47;66.09;100207.13;24554;1336;3025770;-72
2022/10/14 06:23:46;;;;;;;19.70;6.40;;;;;;;9.46;66.26;100211.22;24608;1331;3026578;-68
2022/10/14 06:26:15;;;;;;;12.30;6.20;;;;;;;9.40;66.50;100214.75;24573;1329;3026624;-70
2022/10/14 06:28:45;;;;;;;11.60;6.00;;;;;;;9.39;66.68;100210.10;24503;1331;3049477;-69
2022/10/14 06:31:15;;;;;;;16.80;5.90;;;;;;;9.45;66.72;100212.66;24577;1335;3027106;-68
2022/10/14 06:33:46;;;;;;;11.00;5.70;;;;;;;9.45;66.29;100211.75;24570;1334;3026631;-71
2022/10/14 06:36:15;;;;;;;12.60;5.90;;;;;;;9.51;66.14;100217.42;24586;1335;3029342;-69
2022/10/14 06:38:44;;;;;;;14.30;6.00;;;;;;;9.60;65.93;100216.19;24647;1331;3026692;-71
2022/10/14 06:41:13;;;;;;;14.60;6.40;;;;;;;9.60;65.65;100217.05;24615;1333;3050590;-72
2022/10/14 06:43:43;;;;;;;14.90;5.90;;;;;;;9.58;65.91;100217.13;24661;1336;3029196;-70
2022/10/14 06:46:12;;;;;;;11.30;6.20;;;;;;;9.64;65.81;100218.63;24644;1328;3027000;-68
2022/10/14 06:48:41;;;;;;;18.50;6.00;;;;;;;9.62;65.89;100216.09;24600;1333;3048807;-70
2022/10/14 06:51:10;;;;;;;17.90;7.20;;;;;;;9.65;65.85;100216.83;24597;1332;3027305;-71
2022/10/14 06:53:39;;;;;;;14.80;6.20;;;;;;;9.64;65.91;100219.99;24572;1328;3067606;-67
2022/10/14 06:56:10;;;;;;;17.00;6.30;;;;;;;9.71;65.61;100217.59;24587;1329;3026921;-68
2022/10/14 06:58:39;;;;;;;16.80;6.00;;;;;;;9.74;65.51;100216.41;24585;1331;3049699;-73
2022/10/14 07:01:08;;;;;;;14.80;6.90;;;;;;;9.79;65.73;100219.70;24634;1334;3026942;-71
2022/10/14 07:03:38;;;;;;;13.50;6.70;;;;;;;9.85;65.28;100216.96;24583;1336;3052263;-70
2022/10/14 07:06:07;;;;;;;13.80;7.20;;;;;;;9.89;65.35;100219.90;24580;1334;3026415;-70
2022/10/14 07:08:36;;;;;;;15.90;7.00;;;;;;;9.98;65.11;100219.34;24559;1329;3029200;-72
2022/10/14 07:11:08;;;;;;;16.30;6.70;;;;;;;9.92;64.92;100220.88;24584;1330;3053396;-68
2022/10/14 07:13:38;;;;;;;13.60;6.10;;;;;;;10.08;64.50;100219.58;24547;1333;3027523;-71
2022/10/14 07:16:08;;;;;;;19.10;6.70;;;;;;;10.11;64.17;100222.59;24543;1329;3026442;-65
2022/10/14 07:18:36;;;;;;;13.40;6.00;;;;;;;10.22;63.76;100222.44;24525;1337;3026024;-67
2022/10/14 07:21:06;;;;;;;19.90;6.30;;;;;;;10.26;63.78;100224.55;24534;1340;3048831;-70
2022/10/14 07:23:35;;;;;;;13.40;6.40;;;;;;;10.34;63.85;100222.23;24555;1336;3028076;-69
2022/10/14 07:26:04;;;;;;;14.60;6.50;;;;;;;10.32;63.46;100223.20;24605;1323;3029881;-70
2022/10/14 07:28:33;;;;;;;16.70;6.20;;;;;;;10.36;63.42;100220.41;24527;1331;3048669;-71
2022/10/14 07:31:04;;;;;;;13.60;6.50;;;;;;;10.32;63.50;100222.00;24601;1331;3028067;-71
2022/10/14 07:33:35;;;;;;;16.40;6.60;;;;;;;10.24;63.57;100224.07;24489;1329;3050718;-67
2022/10/14 07:36:06;;;;;;;16.50;5.30;;;;;;;10.28;63.40;100224.27;24593;1331;3028284;-70
2022/10/14 07:38:37;;;;;;;13.80;5.50;;;;;;;10.30;63.40;100224.52;24561;1337;3027754;-70
2022/10/14 07:41:15;;;;;;;16.30;5.60;;;;;;;10.38;63.13;100226.45;24520;1333;3026614;-72
2022/10/14 07:43:52;;;;;;;12.10;5.40;;;;;;;10.43;62.89;100227.11;24568;1337;3056944;-70
2022/10/14 07:46:30;;;;;;;13.30;5.30;;;;;;;10.54;62.67;100226.03;24505;1336;3053451;-69
2022/10/14 07:49:09;;;;;;;12.50;6.40;;;;;;;10.65;62.28;100225.17;24600;1340;3052867;-70
2022/10/14 07:51:38;;;;;;;19.30;6.20;;;;;;;10.70;62.07;100226.85;24632;1329;3051195;-69
2022/10/14 07:54:10;;;;;;;14.00;6.50;;;;;;;10.75;61.71;100225.70;24594;1324;3027330;-68
2022/10/14 07:56:40;;;;;;;12.20;5.80;;;;;;;10.82;61.54;100227.98;24534;1339;3055360;-71
2022/10/14 07:59:11;;;;;;;11.50;5.50;;;;;;;10.93;61.62;100230.28;24515;1332;3027467;-73
2022/10/14 08:01:45;;;;;;;15.00;5.40;;;;;;;10.96;61.08;100229.96;24521;1336;3025637;-64
2022/10/14 08:04:14;;;;;;;12.50;5.60;;;;;;;11.05;61.00;100230.00;24514;1334;3027823;-69
2022/10/14 08:06:48;;;;;;;11.60;5.70;;;;;;;11.14;60.39;100226.05;24554;1329;3025431;-68
2022/10/14 08:09:17;;;;;;;10.10;5.10;;;;;;;11.16;60.07;100227.37;24586;1339;3026210;-69
2022/10/14 08:11:47;;;;;;;11.90;5.20;;;;;;;11.18;60.15;100226.56;24523;1333;3028415;-67
2022/10/14 08:14:16;;;;;;;10.40;5.30;;;;;;;11.31;59.88;100227.99;24608;1332;3028481;-66
2022/10/14 08:16:45;;;;;;;12.20;5.70;;;;;;;11.40;59.27;100226.30;24532;1323;3051153;-67
2022/10/14 08:19:15;;;;;;;12.60;5.30;;;;;;;11.47;58.77;100229.14;24541;1329;3029135;-64
2022/10/14 08:21:44;;;;;;;12.00;6.00;;;;;;;11.54;58.66;100221.86;24598;1331;3028000;-67
2022/10/14 08:24:14;;;;;;;17.50;6.90;;;;;;;11.57;58.59;100223.98;24504;1335;3050981;-66
2022/10/14 08:26:51;;;;;;;13.70;6.90;;;;;;;11.62;58.72;100224.99;24521;1330;3027676;-69
2022/10/14 08:29:23;;;;;;;21.00;8.00;;;;;;;11.65;58.42;100221.86;24607;1337;3069045;-72
2022/10/14 08:31:54;;;;;;;18.60;7.50;;;;;;;11.73;58.19;100222.11;24591;1332;3049724;-68
2022/10/14 08:34:23;;;;;;;16.00;6.80;;;;;;;11.82;57.72;100221.65;24570;1324;3027385;-65
2022/10/14 08:36:52;;;;;;;18.50;8.30;;;;;;;11.79;57.57;100218.63;24595;1333;3066423;-74
2022/10/14 08:39:23;;;;;;;20.30;8.00;;;;;;;11.73;58.05;100218.09;24637;1330;3028002;-67
2022/10/14 08:42:00;;;;;;;18.90;7.40;;;;;;;11.92;57.37;100220.77;24612;1328;3025524;-70
2022/10/14 08:44:48;;;;;;;25.20;8.00;;;;;;;11.99;56.58;100220.27;24576;1333;3068663;-67
2022/10/14 08:47:20;;;;;;;16.70;7.60;;;;;;;11.97;56.51;100219.50;24600;1331;3051285;-72
2022/10/14 08:50:08;;;;;;;17.90;7.90;;;;;;;12.07;56.10;100221.05;24654;1329;3056182;-76
2022/10/14 08:52:40;;;;;;;21.90;7.60;;;;;;;12.09;55.96;100219.70;24613;1323;3054319;-72
2022/10/14 08:55:29;;;;;;;21.00;7.00;;;;;;;12.17;55.48;100218.38;24590;1333;3053320;-72
2022/10/14 08:58:12;;;;;;;19.00;7.70;;;;;;;12.28;55.00;100216.92;24613;1329;3052813;-69
2022/10/14 09:00:41;;;;;;;19.90;8.70;;;;;;;12.33;55.17;100215.04;24576;1331;3053161;-68
2022/10/14 09:03:20;;;;;;;18.80;8.70;;;;;;;12.37;55.10;100207.98;24464;1340;3026687;-67
2022/10/14 09:06:12;;;;;;;14.20;7.50;;;;;;;12.37;54.68;100208.14;24560;1322;3051503;-69
2022/10/14 09:08:43;;;;;;;16.20;8.10;;;;;;;12.48;54.94;100204.91;24604;1331;3052912;-66
2022/10/14 09:11:19;;;;;;;18.00;8.50;;;;;;;12.59;54.70;100205.98;24530;1329;3026434;-73
2022/10/14 09:13:56;;;;;;;16.90;7.90;;;;;;;12.60;54.68;100205.98;24536;1326;3069283;-69
2022/10/14 09:16:27;;;;;;;16.50;8.10;;;;;;;12.67;54.46;100203.64;24545;1334;3027372;-70
2022/10/14 09:18:59;;;;;;;14.60;7.30;;;;;;;12.68;54.20;100208.83;24495;1330;3025591;-65
2022/10/14 09:21:30;;;;;;;16.10;8.20;;;;;;;12.78;54.31;100203.70;24584;1331;3027947;-68
2022/10/14 09:24:01;;;;;;;17.30;7.90;;;;;;;12.85;54.28;100199.23;24572;1334;3026874;-71
2022/10/14 09:26:40;;;;;;;20.60;10.00;;;;;;;12.95;54.28;100198.54;24574;1331;3026735;-69
2022/10/14 09:29:26;;;;;;;17.80;8.30;;;;;;;13.03;54.48;100198.59;24568;1329;3052581;-72
2022/10/14 09:31:57;;;;;;;19.10;8.50;;;;;;;13.09;54.52;100198.71;24602;1329;3050069;-72
2022/10/14 09:34:38;;;;;;;21.60;9.80;;;;;;;13.19;54.47;100193.92;24614;1331;3028076;-68
2022/10/14 09:37:24;;;;;;;19.90;9.70;;;;;;;13.20;54.81;100196.69;24641;1339;3050967;-70
2022/10/14 09:39:57;;;;;;;26.40;9.80;;;;;;;13.24;55.17;100195.34;24750;1336;3057570;-73
2022/10/14 09:42:56;;;;;;;19.60;9.50;;;;;;;13.32;54.49;100197.73;24746;1324;3026585;-72
2022/10/14 09:45:25;;;;;;;20.90;9.00;;;;;;;13.30;53.74;100199.23;24668;1339;3052528;-70
2022/10/14 09:48:08;;;;;;;21.10;9.40;;;;;;;13.40;53.87;100199.16;24577;1330;3029743;-72
2022/10/14 09:50:40;;;;;;;18.20;9.40;;;;;;;13.45;53.23;100203.80;24545;1329;3053512;-73
2022/10/14 09:53:17;;;;;;;21.00;9.50;;;;;;;13.55;53.12;100202.35;24568;1323;3027719;-72
2022/10/14 09:55:59;;;;;;;24.70;10.10;;;;;;;13.63;52.44;100199.55;24568;1316;3068085;-72
2022/10/14 09:58:49;;;;;;;25.00;9.90;;;;;;;13.71;52.08;100198.39;24576;1334;3050933;-70
2022/10/14 10:01:20;;;;;;;26.80;10.30;;;;;;;13.76;51.61;100196.82;24536;1340;3057493;-67
2022/10/14 10:03:50;;;;;;;24.50;10.10;;;;;;;13.75;51.86;100195.14;24539;1329;3026594;-71
2022/10/14 10:06:24;;;;;;;21.20;8.80;;;;;;;13.72;51.96;100193.56;24583;1337;3025781;-71
2022/10/14 10:08:54;;;;;;;16.60;8.90;;;;;;;13.72;51.81;100193.36;24613;1323;3027683;-67
2022/10/14 10:11:37;;;;;;;23.60;9.10;;;;;;;13.77;51.59;100197.14;24568;1333;3024876;-67
2022/10/14 10:14:19;;;;;;;19.10;8.40;;;;;;;13.85;50.93;100193.28;24549;1339;3050419;-65
2022/10/14 10:16:50;;;;;;;27.50;9.50;;;;;;;13.85;50.45;100192.02;24525;1332;3070136;-67
2022/10/14 10:19:37;;;;;;;22.10;7.50;;;;;;;13.73;49.53;100194.39;24532;1331;3050580;-65
2022/10/14 10:22:25;;;;;;;20.40;6.10;;;;;;;13.62;47.85;100188.71;24522;1343;3057007;-67
2022/10/14 10:25:05;;;;;;;20.20;6.20;;;;;;;13.76;47.11;100191.20;24623;1332;3052927;-67
2022/10/14 10:27:39;;;;;;;14.60;5.70;;;;;;;13.93;46.21;100194.20;24580;1331;3053903;-68
2022/10/14 10:30:20;;;;;;;20.10;6.70;;;;;;;13.97;45.60;100193.41;24529;1332;3051365;-67
2022/10/14 10:33:12;;;;;;;16.40;5.50;;;;;;;14.08;45.58;100192.55;24525;1333;3052620;-68
2022/10/14 10:36:09;;;;;;;12.20;4.10;;;;;;;14.00;43.85;100189.17;24502;1331;3051393;-64
2022/10/14 10:39:05;;;;;;;16.20;5.40;;;;;;;14.02;44.25;100188.86;24506;1324;3070817;-67
2022/10/14 10:42:04;;;;;;;9.60;4.80;;;;;;;14.16;44.58;100189.04;24539;1323;3049721;-72
2022/10/14 10:45:02;;;;;;;10.90;4.50;;;;;;;14.31;44.65;100187.17;24581;1334;3057169;-70
2022/10/14 10:47:44;;;;;;;10.90;3.50;;;;;;;14.41;42.79;100184.56;24589;1333;3052447;-68
2022/10/14 10:50:27;;;;;;;6.30;3.20;;;;;;;14.59;41.54;100183.95;24583;1331;3052580;-71
2022/10/14 10:53:18;;;;;;;8.00;3.90;;;;;;;14.81;41.55;100180.59;24577;1324;3052880;-65
2022/10/14 10:56:18;;;;;;;6.90;3.20;;;;;;;15.01;41.09;100178.38;24491;1333;3052869;-68
2022/10/14 10:59:09;;;;;;;12.30;3.10;;;;;;;15.11;39.40;100178.55;24562;1329;3049828;-73
2022/10/14 11:01:47;;;;;;;13.20;2.80;;;;;;;15.14;39.33;100174.50;24533;1329;3069392;-68
2022/10/14 11:04:34;;;;;;;13.60;3.60;;;;;;;15.22;40.55;100174.46;24627;1325;3050099;-71
2022/10/14 11:13:08;;;;;;;17.40;4.50;;;;;;;15.15;40.58;100170.17;24591;1325;3054523;-70
2022/10/14 11:15:46;;;;;;;21.60;4.30;;;;;;;15.29;40.51;100173.50;24607;1329;3052402;-69
2022/10/14 11:18:22;;;;;;;22.20;4.00;;;;;;;15.29;40.22;100168.84;24562;1330;3052679;-67
2022/10/14 11:21:13;;;;;;;21.80;4.00;;;;;;;15.37;39.29;100164.59;24527;1333;3028792;-72
2022/10/14 11:23:58;;;;;;;18.50;3.10;;;;;;;15.48;38.45;100167.56;24572;1333;3069998;-69
2022/10/14 11:26:36;;;;;;;12.20;2.80;;;;;;;15.61;37.51;100168.23;24547;1334;3051599;-71
2022/10/14 11:29:11;;;;;;;14.50;2.80;;;;;;;15.75;37.32;100164.63;24531;1326;3056221;-66
2022/10/14 11:32:10;;;;;;;20.00;2.80;;;;;;;15.90;36.93;100165.35;24641;1323;3052466;-69
2022/10/14 11:35:07;;;;;;;15.70;3.00;;;;;;;16.12;36.61;100157.60;24590;1326;3053460;-67
2022/10/14 11:37:50;;;;;;;8.20;2.00;;;;;;;16.31;36.48;100156.93;24605;1330;3051727;-68
2022/10/14 11:40:27;;;;;;;14.20;2.60;;;;;;;16.45;36.32;100153.79;24669;1329;3051749;-71
2022/10/14 11:43:38;;;;;;;11.30;3.10;;;;;;;16.56;36.69;100152.58;24633;1340;3049643;-69
2022/10/14 11:46:07;;;;;;;8.40;2.70;;;;;;;16.65;37.02;100147.50;24551;1323;3068457;-69
2022/10/14 11:48:45;;;;;;;7.50;2.40;;;;;;;16.82;37.21;100144.43;24626;1324;3026917;-70
2022/10/14 11:51:29;;;;;;;7.30;2.80;;;;;;;16.94;37.10;100140.06;24540;1334;3057386;-70
2022/10/14 11:54:07;;;;;;;6.90;2.60;;;;;;;17.07;37.36;100141.19;24643;1331;3053221;-71